Time;durP1;ratioP1;P1;durP2;ratioP2;P2;SDS_P1;SDS_P2;PMS_P1;PMS_P2;Temp;Humidity;BMP_temperature;BMP_pressure;BME280_temperature;BME280_humidity;BME280_pressure;Samples;Min_cycle;Max_cycle;Signal;HPM_P1;HPM_P2
2023/05/17 00:01:54;;;;;;;18.77;4.18;;;9.30;81.50;;;;;;5042654;28;20049;-45
2023/05/17 00:04:23;;;;;;;16.15;3.80;;;9.30;81.60;;;;;;5049930;28;20037;-44
2023/05/17 00:06:54;;;;;;;17.75;5.15;;;9.30;81.40;;;;;;5049142;28;20044;-44
2023/05/17 00:09:21;;;;;;;17.88;3.90;;;9.20;81.50;;;;;;5032073;28;20026;-44
2023/05/17 00:11:48;;;;;;;21.42;4.03;;;9.20;81.90;;;;;;5039173;28;20378;-44
2023/05/17 00:14:15;;;;;;;22.85;4.72;;;9.20;81.90;;;;;;5034625;28;20040;-45
2023/05/17 00:16:44;;;;;;;18.13;3.33;;;9.20;82.10;;;;;;5034621;28;20045;-45
2023/05/17 00:19:14;;;;;;;18.50;4.05;;;9.10;82.10;;;;;;5052740;28;20056;-45
2023/05/17 00:21:41;;;;;;;14.25;5.00;;;9.10;81.60;;;;;;5036424;28;20033;-45
2023/05/17 00:24:08;;;;;;;18.20;4.07;;;9.00;81.20;;;;;;5052815;28;20518;-44
2023/05/17 00:26:38;;;;;;;21.52;3.58;;;9.00;80.80;;;;;;5036137;28;20064;-44
2023/05/17 00:29:05;;;;;;;16.48;4.28;;;9.10;80.90;;;;;;5033842;28;20049;-44
2023/05/17 00:31:31;;;;;;;20.52;3.65;;;9.10;80.70;;;;;;5026471;28;20029;-45
2023/05/17 00:33:58;;;;;;;12.45;3.75;;;9.10;80.40;;;;;;5051181;28;20320;-44
2023/05/17 00:36:23;;;;;;;14.15;3.83;;;9.10;80.60;;;;;;5048615;28;20363;-45
2023/05/17 00:38:50;;;;;;;21.13;4.32;;;9.10;80.80;;;;;;5024936;28;20033;-45
2023/05/17 00:41:20;;;;;;;17.00;3.35;;;9.10;81.20;;;;;;5033168;28;20025;-44
2023/05/17 00:43:45;;;;;;;10.93;3.25;;;9.00;81.50;;;;;;5032511;28;20022;-45
2023/05/17 00:46:14;;;;;;;19.98;3.92;;;9.00;81.70;;;;;;5036325;28;20366;-45
2023/05/17 00:48:42;;;;;;;20.50;3.60;;;9.00;81.60;;;;;;5034830;28;20041;-45
2023/05/17 00:51:11;;;;;;;13.63;3.38;;;8.90;81.60;;;;;;5040301;28;20038;-44
2023/05/17 00:53:38;;;;;;;16.15;3.78;;;8.90;81.40;;;;;;5039485;28;20400;-45
2023/05/17 00:56:05;;;;;;;15.13;3.20;;;8.90;81.40;;;;;;5034931;28;20025;-45
2023/05/17 00:58:33;;;;;;;21.52;4.45;;;8.90;81.60;;;;;;5037048;28;20033;-46
2023/05/17 01:01:00;;;;;;;19.42;4.45;;;8.90;80.70;;;;;;5039062;28;20343;-46
2023/05/17 01:03:28;;;;;;;14.20;4.00;;;8.90;80.40;;;;;;5048054;28;20029;-45
2023/05/17 01:05:56;;;;;;;17.30;3.50;;;9.00;80.60;;;;;;5036409;28;20758;-44
2023/05/17 01:08:23;;;;;;;12.57;3.88;;;9.00;79.90;;;;;;5051157;28;20370;-45
2023/05/17 01:11:07;;;;;;;9.57;2.72;;;8.90;77.00;;;;;;5055883;28;20028;-45
2023/05/17 01:14:08;;;;;;;17.67;4.65;;;8.90;76.40;;;;;;5038814;28;20580;-46
2023/05/17 01:17:05;;;;;;;12.38;2.45;;;8.80;75.80;;;;;;5037169;28;20033;-44
2023/05/17 01:20:14;;;;;;;9.82;2.38;;;8.70;74.30;;;;;;5036624;28;20053;-45
2023/05/17 01:23:07;;;;;;;10.98;2.03;;;8.70;73.10;;;;;;5038208;28;20040;-45
2023/05/17 01:26:05;;;;;;;11.60;2.17;;;8.70;72.90;;;;;;5051755;28;20040;-44
2023/05/17 01:28:35;;;;;;;12.07;1.85;;;8.60;72.90;;;;;;5044132;28;20103;-45
2023/05/17 01:31:04;;;;;;;12.00;2.42;;;8.50;73.50;;;;;;5050634;28;20026;-45
2023/05/17 01:33:31;;;;;;;9.47;1.90;;;8.40;73.90;;;;;;5038795;28;20083;-45
2023/05/17 01:35:58;;;;;;;13.80;2.08;;;8.40;74.60;;;;;;5037208;28;20040;-45
2023/05/17 01:38:25;;;;;;;12.90;2.45;;;8.40;74.50;;;;;;5055197;28;20025;-45
2023/05/17 01:41:23;;;;;;;12.75;2.17;;;8.40;74.30;;;;;;5053147;28;20116;-49
2023/05/17 01:44:07;;;;;;;9.02;2.63;;;8.20;73.10;;;;;;5049535;28;20037;-44
2023/05/17 01:46:46;;;;;;;16.63;4.57;;;8.20;73.60;;;;;;5038401;28;20121;-46
2023/05/17 01:49:23;;;;;;;20.83;3.78;;;8.20;75.00;;;;;;5051286;28;20090;-45
2023/05/17 01:52:12;;;;;;;22.80;5.07;;;8.20;75.90;;;;;;5035810;28;20124;-45
2023/05/17 01:55:12;;;;;;;12.85;4.35;;;8.30;76.40;;;;;;5027791;28;20025;-44
2023/05/17 01:57:44;;;;;;;14.77;2.97;;;8.40;76.40;;;;;;5031277;28;20486;-45
2023/05/17 02:00:16;;;;;;;11.52;2.53;;;8.40;76.00;;;;;;5033057;28;20037;-44
2023/05/17 02:02:45;;;;;;;12.35;2.83;;;8.50;75.30;;;;;;5041583;28;20505;-46
2023/05/17 02:05:11;;;;;;;10.48;2.60;;;8.50;72.90;;;;;;5036623;28;20040;-45
2023/05/17 02:07:38;;;;;;;13.48;2.30;;;8.60;72.20;;;;;;5052280;28;20041;-45
2023/05/17 02:10:07;;;;;;;11.18;1.98;;;8.50;71.40;;;;;;5053279;28;20039;-45
2023/05/17 02:12:34;;;;;;;8.18;2.42;;;8.60;71.60;;;;;;5016787;28;20132;-45
2023/05/17 02:15:04;;;;;;;13.32;2.90;;;8.60;70.00;;;;;;5044730;28;20068;-44
2023/05/17 02:17:32;;;;;;;14.32;3.85;;;8.60;70.50;;;;;;5041092;28;20033;-45
2023/05/17 02:19:59;;;;;;;9.75;2.22;;;8.60;71.20;;;;;;5049475;28;20576;-45
2023/05/17 02:22:25;;;;;;;13.65;2.35;;;8.50;71.30;;;;;;5049975;28;20072;-45
2023/05/17 02:24:55;;;;;;;11.30;2.08;;;8.60;71.60;;;;;;5016035;28;20029;-46
2023/05/17 02:27:22;;;;;;;;;;;8.60;71.20;;;;;;5052871;28;20029;-44
2023/05/17 02:29:49;;;;;;;10.27;1.75;;;8.50;70.80;;;;;;5053560;28;19909;-45
2023/05/17 02:32:16;;;;;;;9.63;2.17;;;8.50;70.70;;;;;;5042757;28;20025;-46
2023/05/17 02:34:42;;;;;;;9.57;2.20;;;8.40;69.80;;;;;;5054353;28;20040;-46
2023/05/17 02:37:09;;;;;;;15.02;3.22;;;8.40;70.60;;;;;;5041901;28;20032;-48
2023/05/17 02:39:37;;;;;;;11.02;2.20;;;8.40;69.90;;;;;;5020316;28;20029;-45
2023/05/17 02:42:04;;;;;;;11.57;2.70;;;8.40;69.70;;;;;;5054395;28;20465;-45
2023/05/17 02:44:31;;;;;;;12.05;2.17;;;8.30;70.10;;;;;;5029472;28;20040;-46
2023/05/17 02:46:58;;;;;;;9.45;2.30;;;8.30;69.80;;;;;;5053267;28;20021;-45
2023/05/17 02:49:26;;;;;;;14.27;2.17;;;8.40;70.50;;;;;;5047351;28;20108;-44
2023/05/17 02:51:53;;;;;;;9.20;2.00;;;8.40;71.00;;;;;;5054251;28;20434;-45
2023/05/17 02:54:20;;;;;;;8.38;1.85;;;8.40;71.10;;;;;;5033783;28;20040;-45
2023/05/17 02:56:48;;;;;;;8.77;1.73;;;8.40;71.00;;;;;;5052988;28;20052;-45
2023/05/17 02:59:14;;;;;;;10.02;1.67;;;8.40;71.50;;;;;;5053497;28;20029;-45
2023/05/17 03:01:41;;;;;;;8.98;1.73;;;8.40;71.40;;;;;;5029142;28;20481;-45
2023/05/17 03:04:07;;;;;;;9.32;1.83;;;8.30;71.20;;;;;;5036452;28;20029;-44
2023/05/17 03:06:34;;;;;;;11.85;1.73;;;8.40;71.00;;;;;;5036020;28;20036;-45
2023/05/17 03:09:03;;;;;;;15.38;2.70;;;8.40;71.00;;;;;;5045439;28;20037;-45
2023/05/17 03:11:30;;;;;;;12.80;2.13;;;8.40;71.10;;;;;;5034623;28;20351;-45
2023/05/17 03:14:00;;;;;;;10.70;1.88;;;8.30;70.60;;;;;;5017983;28;20030;-45
2023/05/17 03:16:25;;;;;;;8.88;1.92;;;8.30;70.10;;;;;;5034307;28;20017;-47
2023/05/17 03:18:54;;;;;;;9.00;1.98;;;8.20;69.60;;;;;;5035648;28;20068;-49
2023/05/17 03:21:24;;;;;;;18.13;2.78;;;8.20;69.30;;;;;;5016580;28;20031;-47
2023/05/17 03:23:51;;;;;;;;;;;8.30;69.40;;;;;;5045684;28;20036;-47
2023/05/17 03:26:18;;;;;;;8.77;2.58;;;8.30;69.90;;;;;;5022709;28;19993;-44
2023/05/17 03:28:46;;;;;;;13.85;3.05;;;8.30;70.50;;;;;;5044932;28;20017;-47
2023/05/17 03:31:11;;;;;;;11.60;2.40;;;8.30;70.80;;;;;;5032807;28;20043;-46
2023/05/17 03:33:37;;;;;;;14.85;3.70;;;8.20;71.10;;;;;;5053698;28;20033;-46
2023/05/17 03:36:06;;;;;;;14.23;2.20;;;8.20;70.90;;;;;;5051731;28;20160;-46
2023/05/17 03:38:38;;;;;;;18.90;3.13;;;8.20;70.00;;;;;;5040791;28;20355;-45
2023/05/17 03:41:05;;;;;;;10.05;1.85;;;8.20;69.60;;;;;;5032821;28;20036;-45
2023/05/17 03:43:32;;;;;;;15.23;2.92;;;8.20;69.10;;;;;;5035659;28;20034;-46
2023/05/17 03:46:01;;;;;;;9.40;2.92;;;8.20;68.80;;;;;;5040550;28;20069;-45
2023/05/17 03:48:28;;;;;;;10.90;3.13;;;8.30;69.00;;;;;;5044196;28;20021;-45
2023/05/17 03:50:55;;;;;;;13.38;2.72;;;8.30;69.00;;;;;;5033452;28;20126;-46
2023/05/17 03:53:24;;;;;;;11.15;2.67;;;8.30;69.50;;;;;;5034770;28;20171;-46
2023/05/17 03:55:51;;;;;;;14.43;3.17;;;8.30;69.80;;;;;;5048153;28;20044;-45
2023/05/17 03:58:25;;;;;;;16.25;3.30;;;8.20;70.20;;;;;;5046365;28;20047;-46
2023/05/17 04:00:52;;;;;;;21.02;3.70;;;8.20;70.30;;;;;;5044733;28;20049;-47
2023/05/17 04:03:20;;;;;;;13.27;3.30;;;8.20;71.40;;;;;;5052804;28;20029;-46
2023/05/17 04:05:49;;;;;;;15.77;3.30;;;8.20;72.10;;;;;;5035515;28;20028;-47
2023/05/17 04:08:20;;;;;;;15.80;4.32;;;8.20;71.30;;;;;;5045642;28;20017;-47
2023/05/17 04:10:51;;;;;;;20.02;3.92;;;8.20;71.70;;;;;;5033891;28;20472;-48
2023/05/17 04:13:20;;;;;;;15.38;3.42;;;8.30;71.40;;;;;;5041589;28;20075;-45
2023/05/17 04:15:48;;;;;;;16.60;3.10;;;8.30;71.30;;;;;;5034887;28;20032;-45
2023/05/17 04:18:16;;;;;;;21.02;3.10;;;8.20;71.60;;;;;;5051344;28;20056;-49
2023/05/17 04:20:45;;;;;;;16.48;3.72;;;8.20;70.70;;;;;;5051094;28;20115;-47
2023/05/17 04:23:12;;;;;;;12.77;3.17;;;8.20;71.30;;;;;;5046412;28;20038;-46
2023/05/17 04:25:38;;;;;;;12.10;3.03;;;8.20;70.00;;;;;;5033658;28;20507;-48
2023/05/17 04:28:06;;;;;;;16.30;3.05;;;8.20;69.00;;;;;;5039377;28;20029;-45
2023/05/17 04:30:35;;;;;;;12.65;2.83;;;8.20;69.50;;;;;;5045273;28;20434;-47
2023/05/17 04:33:02;;;;;;;13.32;2.22;;;8.20;69.90;;;;;;5046944;28;20041;-46
2023/05/17 04:35:32;;;;;;;11.90;2.40;;;8.10;70.00;;;;;;5048520;28;20037;-45
2023/05/17 04:37:59;;;;;;;15.88;2.25;;;8.10;69.60;;;;;;5035159;28;20025;-45
2023/05/17 04:40:26;;;;;;;9.15;3.33;;;7.90;67.30;;;;;;5050131;28;20033;-45
2023/05/17 04:42:54;;;;;;;9.32;2.22;;;8.00;66.90;;;;;;5034215;28;20025;-45
2023/05/17 04:45:22;;;;;;;15.65;3.40;;;8.00;66.20;;;;;;5043375;28;20093;-46
2023/05/17 04:47:51;;;;;;;8.68;2.80;;;8.20;65.70;;;;;;5036716;28;20281;-45
2023/05/17 04:50:20;;;;;;;17.00;2.90;;;8.20;65.80;;;;;;5034821;28;20466;-45
2023/05/17 04:52:50;;;;;;;17.05;3.42;;;8.20;66.30;;;;;;5040591;28;20124;-45
2023/05/17 04:55:16;;;;;;;13.38;4.75;;;8.30;66.70;;;;;;5043272;28;20026;-45
2023/05/17 04:57:43;;;;;;;8.02;2.33;;;8.30;66.60;;;;;;5034383;28;20184;-46
2023/05/17 05:00:09;;;;;;;10.57;2.63;;;8.40;67.10;;;;;;5027197;28;20072;-45
2023/05/17 05:02:37;;;;;;;14.32;3.13;;;8.40;67.10;;;;;;5047586;28;20033;-46
2023/05/17 05:05:03;;;;;;;15.23;2.65;;;8.40;68.30;;;;;;5052436;28;20462;-44
2023/05/17 05:07:30;;;;;;;13.55;3.50;;;8.50;69.50;;;;;;5036985;28;20044;-48
2023/05/17 05:09:56;;;;;;;22.27;3.70;;;8.50;71.10;;;;;;5042312;28;20033;-47
2023/05/17 05:12:21;;;;;;;22.60;3.40;;;8.50;71.60;;;;;;5034352;28;20025;-47
2023/05/17 05:14:48;;;;;;;15.75;3.63;;;8.40;72.30;;;;;;5049266;28;20025;-46
2023/05/17 05:17:24;;;;;;;9.80;3.08;;;8.50;72.70;;;;;;5043910;28;20175;-47
2023/05/17 05:19:52;;;;;;;13.60;3.22;;;8.50;73.40;;;;;;5032167;28;20114;-47
2023/05/17 05:22:19;;;;;;;14.63;3.67;;;8.40;73.40;;;;;;5033120;28;20021;-50
2023/05/17 05:24:47;;;;;;;15.82;2.85;;;8.40;73.40;;;;;;5046151;28;20041;-48
2023/05/17 05:27:14;;;;;;;12.52;2.72;;;8.60;73.10;;;;;;5040273;28;20071;-46
2023/05/17 05:29:43;;;;;;;10.35;2.35;;;8.70;72.80;;;;;;5052306;28;20021;-46
2023/05/17 05:32:10;;;;;;;13.15;2.85;;;8.70;69.50;;;;;;5034188;28;20029;-45
2023/05/17 05:34:37;;;;;;;14.35;2.67;;;8.80;67.60;;;;;;5044842;28;20041;-45
2023/05/17 05:37:07;;;;;;;9.13;1.77;;;8.90;65.70;;;;;;5017635;28;20025;-50
2023/05/17 05:39:36;;;;;;;10.98;2.67;;;9.10;64.90;;;;;;5044149;28;20503;-45
2023/05/17 05:42:05;;;;;;;10.52;2.58;;;9.20;64.90;;;;;;5046572;28;20033;-48
2023/05/17 05:44:31;;;;;;;7.30;2.75;;;9.20;63.30;;;;;;5046605;28;20051;-46
2023/05/17 05:46:57;;;;;;;7.18;2.00;;;9.20;63.50;;;;;;5042132;28;20452;-48
2023/05/17 05:49:23;;;;;;;14.02;4.72;;;9.20;65.30;;;;;;5035819;28;20035;-44
2023/05/17 05:51:52;;;;;;;13.80;2.63;;;9.10;65.50;;;;;;5034595;28;20113;-44
2023/05/17 05:54:22;;;;;;;12.32;2.00;;;9.10;65.70;;;;;;5049741;28;20037;-45
2023/05/17 05:56:50;;;;;;;8.65;1.75;;;9.10;64.90;;;;;;5051128;28;20028;-46
2023/05/17 05:59:15;;;;;;;11.95;2.67;;;9.10;63.60;;;;;;5037563;28;20543;-50
2023/05/17 06:01:45;;;;;;;9.88;1.75;;;9.10;61.80;;;;;;5051659;28;20111;-45
2023/05/17 06:04:11;;;;;;;5.00;2.03;;;9.10;62.40;;;;;;5054524;28;20029;-46
2023/05/17 06:06:38;;;;;;;14.73;3.35;;;9.10;63.60;;;;;;5047018;28;20371;-46
2023/05/17 06:09:06;;;;;;;12.77;2.28;;;9.00;65.10;;;;;;5047726;28;20040;-45
2023/05/17 06:11:31;;;;;;;11.73;2.88;;;9.00;66.20;;;;;;5055100;28;20027;-49
2023/05/17 06:13:57;;;;;;;6.88;1.80;;;9.10;67.20;;;;;;5054743;28;20346;-48
2023/05/17 06:16:23;;;;;;;7.15;2.95;;;9.10;66.60;;;;;;5054601;28;20029;-48
2023/05/17 06:18:51;;;;;;;10.18;2.83;;;9.00;66.80;;;;;;5049539;28;20148;-45
2023/05/17 06:21:18;;;;;;;11.93;1.92;;;9.00;67.10;;;;;;5054337;28;20064;-45
2023/05/17 06:23:45;;;;;;;10.95;2.55;;;8.90;67.40;;;;;;5049958;28;20033;-44
2023/05/17 06:26:12;;;;;;;7.80;2.05;;;8.90;68.20;;;;;;5045722;28;20060;-45
2023/05/17 06:28:40;;;;;;;9.25;2.17;;;8.90;69.30;;;;;;5043507;28;20455;-47
2023/05/17 06:31:11;;;;;;;6.75;1.60;;;8.90;68.60;;;;;;5050091;28;20087;-45
2023/05/17 06:33:39;;;;;;;12.40;2.15;;;8.90;65.70;;;;;;5035362;28;20036;-45
2023/05/17 06:36:06;;;;;;;8.35;1.80;;;9.00;65.50;;;;;;5025035;28;20033;-45
2023/05/17 06:38:33;;;;;;;7.82;1.92;;;9.20;65.80;;;;;;5053997;28;20025;-46
2023/05/17 06:41:00;;;;;;;8.60;1.83;;;9.30;66.00;;;;;;5032981;28;20041;-46
2023/05/17 06:43:28;;;;;;;11.75;1.65;;;9.40;64.50;;;;;;5053793;28;20056;-45
2023/05/17 06:45:55;;;;;;;8.73;2.30;;;9.40;63.30;;;;;;5053572;28;20393;-45
2023/05/17 06:48:22;;;;;;;13.13;3.28;;;9.40;63.30;;;;;;5046937;28;20382;-45
2023/05/17 06:50:49;;;;;;;14.98;2.67;;;9.20;63.10;;;;;;5030153;28;20029;-45
2023/05/17 06:53:15;;;;;;;12.90;2.35;;;9.10;64.30;;;;;;5045424;28;20608;-45
2023/05/17 06:55:42;;;;;;;12.30;3.03;;;9.20;65.30;;;;;;5050215;28;20112;-45
2023/05/17 06:58:10;;;;;;;11.13;2.28;;;9.20;64.80;;;;;;5053335;28;20029;-47
2023/05/17 07:00:39;;;;;;;13.30;3.05;;;9.20;65.60;;;;;;5032118;28;20025;-45
2023/05/17 07:03:06;;;;;;;11.30;2.47;;;9.30;65.90;;;;;;5054115;28;20127;-45
2023/05/17 07:05:33;;;;;;;11.70;2.28;;;9.30;64.60;;;;;;5044538;28;20026;-46
2023/05/17 07:08:00;;;;;;;13.45;2.20;;;9.20;65.20;;;;;;5034618;28;20402;-46
2023/05/17 07:10:26;;;;;;;10.30;1.67;;;9.20;65.20;;;;;;5047184;28;20025;-44
2023/05/17 07:12:56;;;;;;;10.07;2.05;;;9.20;65.80;;;;;;5034222;28;20449;-47
2023/05/17 07:15:22;;;;;;;5.80;1.83;;;9.20;66.30;;;;;;5034382;28;20028;-45
2023/05/17 07:17:49;;;;;;;8.15;1.88;;;9.30;65.70;;;;;;5046804;28;20029;-46
2023/05/17 07:20:16;;;;;;;6.25;2.17;;;9.40;64.30;;;;;;5033635;28;20693;-45
2023/05/17 07:22:44;;;;;;;16.00;2.10;;;9.50;62.10;;;;;;5046287;28;20025;-44
2023/05/17 07:25:11;;;;;;;11.43;1.85;;;9.70;60.70;;;;;;5046633;28;20896;-45
2023/05/17 07:27:39;;;;;;;7.45;2.88;;;9.80;59.00;;;;;;5052938;28;20029;-47
2023/05/17 07:30:10;;;;;;;12.57;2.67;;;9.90;59.30;;;;;;5053228;28;20120;-48
2023/05/17 07:32:37;;;;;;;11.88;2.08;;;9.90;60.00;;;;;;5051763;28;20043;-45
2023/05/17 07:35:07;;;;;;;11.63;2.47;;;9.80;60.70;;;;;;5053674;28;20036;-45
2023/05/17 07:37:36;;;;;;;10.27;2.20;;;9.80;62.10;;;;;;5047642;28;20036;-45
2023/05/17 07:40:04;;;;;;;10.32;2.25;;;10.20;62.60;;;;;;5037433;28;20037;-45
2023/05/17 07:42:32;;;;;;;15.65;2.78;;;10.40;63.00;;;;;;5052406;28;20097;-45
2023/05/17 07:44:57;;;;;;;10.32;2.30;;;10.40;62.90;;;;;;5050953;28;20098;-45
2023/05/17 07:47:24;;;;;;;8.82;2.10;;;10.10;67.40;;;;;;5036219;28;20029;-45
2023/05/17 07:49:55;;;;;;;7.82;2.40;;;9.90;70.70;;;;;;5048531;28;20028;-45
2023/05/17 07:52:20;;;;;;;12.55;2.70;;;9.60;71.80;;;;;;5023247;28;20033;-45
2023/05/17 07:54:48;;;;;;;12.70;2.78;;;9.70;74.20;;;;;;5032847;28;20048;-45
2023/05/17 07:57:14;;;;;;;13.75;2.97;;;10.30;75.00;;;;;;5048733;28;20095;-45
2023/05/17 07:59:42;;;;;;;8.75;2.15;;;10.70;71.70;;;;;;5036441;28;21744;-46
2023/05/17 08:02:10;;;;;;;8.18;2.17;;;10.50;71.50;;;;;;5049818;28;20442;-43
2023/05/17 08:04:40;;;;;;;8.57;2.95;;;10.10;72.10;;;;;;5033211;28;20074;-43
2023/05/17 08:07:08;;;;;;;8.93;3.08;;;9.60;74.00;;;;;;5033480;28;20033;-43
2023/05/17 08:09:35;;;;;;;9.60;3.47;;;9.20;76.30;;;;;;5024094;28;20029;-42
2023/05/17 08:12:02;;;;;;;15.10;2.92;;;8.90;79.10;;;;;;5046119;28;20025;-43
2023/05/17 08:14:30;;;;;;;14.93;2.78;;;8.90;81.10;;;;;;5052684;28;20458;-44
2023/05/17 08:17:00;;;;;;;14.13;2.45;;;8.90;81.10;;;;;;5046229;28;20124;-49
2023/05/17 08:19:27;;;;;;;16.17;2.70;;;8.90;80.80;;;;;;5050609;28;20048;-45
2023/05/17 08:21:54;;;;;;;6.90;1.50;;;9.00;80.50;;;;;;5052828;28;20115;-45
2023/05/17 08:24:21;;;;;;;9.55;2.55;;;9.30;79.20;;;;;;5052210;28;20044;-45
2023/05/17 08:26:48;;;;;;;8.30;1.98;;;9.70;77.70;;;;;;5047256;28;20078;-44
2023/05/17 08:29:13;;;;;;;13.10;2.83;;;10.40;78.50;;;;;;5034980;28;20032;-43
2023/05/17 08:31:40;;;;;;;12.15;2.05;;;10.40;75.00;;;;;;5051231;28;20033;-43
2023/05/17 08:34:08;;;;;;;8.90;2.00;;;10.40;75.90;;;;;;5052641;28;20331;-43
2023/05/17 08:36:36;;;;;;;11.07;2.38;;;10.20;76.10;;;;;;5052800;28;20021;-43
2023/05/17 08:39:12;;;;;;;12.82;2.90;;;10.20;75.70;;;;;;5052635;28;20033;-43
2023/05/17 08:41:40;;;;;;;6.85;2.03;;;10.20;75.70;;;;;;5036408;28;20083;-42
2023/05/17 08:44:12;;;;;;;12.60;3.13;;;9.90;74.60;;;;;;5032628;28;20447;-42
2023/05/17 08:46:43;;;;;;;10.48;2.00;;;9.90;76.30;;;;;;5035484;28;20033;-43
2023/05/17 08:49:13;;;;;;;9.27;3.20;;;9.90;76.70;;;;;;5047793;28;20260;-43
2023/05/17 08:51:42;;;;;;;11.13;2.40;;;9.80;73.30;;;;;;5030287;28;20034;-44
2023/05/17 08:54:07;;;;;;;10.82;3.17;;;9.80;72.20;;;;;;5031776;28;20035;-43
2023/05/17 08:56:42;;;;;;;13.75;3.40;;;9.90;69.50;;;;;;5035262;28;20028;-43
2023/05/17 08:59:11;;;;;;;11.93;2.70;;;10.00;66.30;;;;;;5042339;28;20045;-44
2023/05/17 09:01:42;;;;;;;15.47;3.10;;;10.20;67.00;;;;;;5030348;28;20087;-44
2023/05/17 09:04:12;;;;;;;10.95;2.22;;;10.40;64.90;;;;;;5045102;28;20121;-44
2023/05/17 09:06:40;;;;;;;11.10;2.50;;;10.60;66.50;;;;;;5049060;28;20029;-43
2023/05/17 09:09:09;;;;;;;10.32;2.00;;;10.50;64.60;;;;;;5032116;28;20018;-45
2023/05/17 09:11:35;;;;;;;20.48;3.10;;;10.90;64.40;;;;;;5041492;28;20033;-45
2023/05/17 09:14:06;;;;;;;11.32;2.95;;;11.40;63.20;;;;;;5036237;28;20037;-45
2023/05/17 09:16:34;;;;;;;10.23;2.75;;;11.40;60.30;;;;;;5036293;28;20017;-45
2023/05/17 09:19:08;;;;;;;14.85;2.72;;;11.40;61.80;;;;;;5045877;28;20067;-46
2023/05/17 09:21:49;;;;;;;11.48;3.42;;;11.20;59.90;;;;;;5049698;28;20029;-45
2023/05/17 09:24:27;;;;;;;10.68;2.70;;;11.20;60.80;;;;;;5056422;28;20098;-44
2023/05/17 09:27:01;;;;;;;15.63;2.50;;;11.30;60.00;;;;;;5035008;28;20024;-45
2023/05/17 09:29:35;;;;;;;9.27;2.20;;;11.50;59.70;;;;;;5038430;28;20044;-45
2023/05/17 09:32:23;;;;;;;11.93;2.15;;;11.40;58.70;;;;;;5029651;28;20044;-45
2023/05/17 09:34:50;;;;;;;9.85;2.13;;;11.50;61.00;;;;;;5052780;28;20032;-46
2023/05/17 09:37:28;;;;;;;11.63;2.42;;;11.60;59.40;;;;;;5045784;28;20108;-45
2023/05/17 09:39:55;;;;;;;14.43;2.13;;;11.70;58.80;;;;;;5035733;28;20041;-45
2023/05/17 09:42:25;;;;;;;12.00;3.30;;;11.60;60.10;;;;;;5033483;28;20045;-44
2023/05/17 09:44:56;;;;;;;;;;;11.40;63.60;;;;;;5037126;28;20049;-45
2023/05/17 09:47:41;;;;;;;7.13;2.25;;;11.30;62.70;;;;;;5018991;28;19987;-45
2023/05/17 09:50:20;;;;;;;11.40;2.60;;;11.40;63.20;;;;;;5035735;28;20022;-45
2023/05/17 09:52:47;;;;;;;9.27;2.10;;;11.60;64.30;;;;;;5045074;28;20104;-44
2023/05/17 09:55:14;;;;;;;12.27;2.90;;;11.90;63.30;;;;;;5048912;28;20039;-46
2023/05/17 09:57:41;;;;;;;11.27;2.33;;;12.00;63.10;;;;;;5050347;28;20137;-46
2023/05/17 10:00:12;;;;;;;8.20;2.60;;;12.30;63.70;;;;;;5038432;28;20620;-45
2023/05/17 10:02:41;;;;;;;6.28;2.20;;;12.50;64.60;;;;;;5043207;28;20037;-45
2023/05/17 10:05:12;;;;;;;8.73;1.92;;;13.10;62.30;;;;;;5035701;28;20088;-45
2023/05/17 10:07:40;;;;;;;9.88;2.63;;;13.40;58.50;;;;;;5034354;28;20039;-46
2023/05/17 10:10:11;;;;;;;8.38;2.60;;;13.50;56.90;;;;;;5041559;28;20025;-45
2023/05/17 10:12:39;;;;;;;9.98;2.53;;;13.20;59.40;;;;;;5050934;28;20024;-45
2023/05/17 10:15:07;;;;;;;8.95;2.90;;;12.80;60.30;;;;;;5035756;28;20036;-45
2023/05/17 10:17:34;;;;;;;11.18;3.08;;;12.90;61.00;;;;;;5017357;28;20037;-46
2023/05/17 10:20:05;;;;;;;14.43;2.85;;;13.00;60.10;;;;;;5039537;28;20083;-49
2023/05/17 10:22:32;;;;;;;10.05;3.10;;;13.20;59.00;;;;;;5040329;28;20040;-47
2023/05/17 10:25:00;;;;;;;9.65;2.58;;;13.00;60.90;;;;;;5054352;28;20085;-46
2023/05/17 10:27:26;;;;;;;11.77;2.60;;;12.60;58.80;;;;;;5036245;28;20033;-47
2023/05/17 10:29:55;;;;;;;9.43;2.83;;;12.10;60.70;;;;;;5054484;28;20021;-47
2023/05/17 10:32:25;;;;;;;10.20;1.85;;;11.80;61.90;;;;;;5048443;28;20040;-45
2023/05/17 10:34:53;;;;;;;9.25;2.78;;;11.60;61.90;;;;;;5034666;28;20122;-45
2023/05/17 10:37:27;;;;;;;14.30;3.08;;;11.50;61.40;;;;;;5017306;28;20064;-45
2023/05/17 10:40:02;;;;;;;9.73;2.42;;;11.40;61.80;;;;;;5033423;28;20124;-48
2023/05/17 10:42:33;;;;;;;11.38;2.45;;;11.40;61.40;;;;;;5027918;28;20034;-48
2023/05/17 10:45:00;;;;;;;8.95;2.63;;;11.40;61.70;;;;;;5015407;28;20033;-46
2023/05/17 10:47:41;;;;;;;13.30;2.78;;;11.40;61.80;;;;;;5054249;28;20024;-45
2023/05/17 10:50:14;;;;;;;11.60;2.60;;;11.80;61.60;;;;;;5021314;28;20171;-46
2023/05/17 10:52:50;;;;;;;13.00;3.08;;;12.30;60.50;;;;;;5035045;28;20108;-47
2023/05/17 10:55:46;;;;;;;15.50;2.83;;;12.60;59.70;;;;;;5022295;28;20025;-46
2023/05/17 10:58:18;;;;;;;13.73;2.97;;;12.40;59.20;;;;;;5039592;28;20048;-45
2023/05/17 11:01:03;;;;;;;13.38;2.53;;;12.00;59.30;;;;;;5049277;28;20473;-45
2023/05/17 11:03:33;;;;;;;15.43;2.78;;;12.10;60.10;;;;;;5051269;28;20044;-48
2023/05/17 11:06:22;;;;;;;11.90;3.22;;;12.10;57.40;;;;;;5054461;28;20126;-46
2023/05/17 11:09:15;;;;;;;12.13;2.92;;;11.70;57.50;;;;;;5039602;28;20029;-46
2023/05/17 11:12:13;;;;;;;10.65;2.38;;;11.60;58.40;;;;;;5045279;28;20457;-45
2023/05/17 11:15:03;;;;;;;9.05;2.38;;;11.50;58.20;;;;;;5044674;28;20033;-45
2023/05/17 11:17:59;;;;;;;5.35;2.03;;;11.70;59.70;;;;;;5049009;28;20048;-46
2023/05/17 11:20:31;;;;;;;10.18;2.00;;;11.50;56.90;;;;;;5036556;28;20057;-46
2023/05/17 11:23:17;;;;;;;6.95;2.13;;;11.50;56.70;;;;;;5034365;28;20512;-45
2023/05/17 11:25:46;;;;;;;11.27;2.92;;;11.70;56.30;;;;;;5050517;28;20025;-46
2023/05/17 11:28:21;;;;;;;9.18;2.08;;;11.80;58.30;;;;;;5023965;28;20049;-45
2023/05/17 11:30:50;;;;;;;11.15;3.15;;;11.90;56.10;;;;;;5034887;28;20420;-45
2023/05/17 11:33:19;;;;;;;13.80;2.33;;;11.90;56.40;;;;;;5053290;28;20033;-46
2023/05/17 11:35:46;;;;;;;7.22;2.25;;;11.80;56.80;;;;;;5051194;28;20033;-45
2023/05/17 11:38:33;;;;;;;14.10;2.67;;;11.90;56.60;;;;;;5049438;28;20090;-46
2023/05/17 11:41:20;;;;;;;11.55;3.22;;;12.20;55.60;;;;;;5040646;28;20029;-46
2023/05/17 11:43:48;;;;;;;8.75;2.17;;;12.50;55.20;;;;;;5016422;28;20037;-46
2023/05/17 11:46:22;;;;;;;11.20;2.45;;;12.40;53.80;;;;;;5018980;28;20028;-46
2023/05/17 11:48:52;;;;;;;13.30;2.58;;;12.40;56.00;;;;;;5035373;28;20041;-46
2023/05/17 11:51:20;;;;;;;7.88;1.75;;;12.30;57.40;;;;;;5040562;28;20048;-45
2023/05/17 11:53:47;;;;;;;15.73;2.80;;;12.10;56.80;;;;;;5053094;28;20040;-45
2023/05/17 11:56:17;;;;;;;11.10;2.90;;;12.40;57.50;;;;;;5046312;28;20104;-46
2023/05/17 11:58:49;;;;;;;10.57;2.20;;;12.70;57.80;;;;;;5034273;28;20106;-47
2023/05/17 12:01:16;;;;;;;10.45;3.10;;;12.70;55.10;;;;;;5012673;28;20044;-46
2023/05/17 12:03:43;;;;;;;12.75;3.10;;;12.70;58.10;;;;;;5053159;28;20483;-47
2023/05/17 12:06:27;;;;;;;10.68;2.78;;;12.80;57.70;;;;;;5045278;28;20365;-48
2023/05/17 12:08:56;;;;;;;12.23;2.83;;;12.40;59.00;;;;;;5049949;28;20029;-46
2023/05/17 12:11:26;;;;;;;7.13;2.83;;;12.20;59.60;;;;;;5049802;28;20025;-48
2023/05/17 12:13:53;;;;;;;12.05;2.80;;;12.00;58.30;;;;;;5019496;28;20037;-45
2023/05/17 12:16:31;;;;;;;7.65;2.58;;;12.10;59.50;;;;;;5050609;28;20411;-48
2023/05/17 12:18:58;;;;;;;7.80;2.40;;;12.20;60.00;;;;;;5031975;28;20057;-46
2023/05/17 12:21:26;;;;;;;12.57;2.47;;;12.50;60.40;;;;;;5041314;28;20056;-47
2023/05/17 12:23:53;;;;;;;9.77;3.10;;;12.40;59.40;;;;;;5051036;28;20086;-46
2023/05/17 12:26:44;;;;;;;10.65;2.03;;;12.30;60.20;;;;;;5031836;28;20044;-45
2023/05/17 12:29:16;;;;;;;8.60;2.20;;;12.50;60.50;;;;;;5048189;28;20045;-46
2023/05/17 12:31:49;;;;;;;11.05;2.78;;;12.90;59.70;;;;;;5049240;28;20332;-46
2023/05/17 12:34:17;;;;;;;11.43;2.10;;;13.10;57.00;;;;;;5038935;28;20032;-46
2023/05/17 12:36:44;;;;;;;9.45;2.78;;;13.30;56.40;;;;;;5033760;28;20041;-45
2023/05/17 12:39:12;;;;;;;11.45;2.90;;;13.40;56.60;;;;;;5034553;28;20106;-49
2023/05/17 12:41:50;;;;;;;11.38;2.08;;;13.50;57.90;;;;;;5038562;28;20107;-45
2023/05/17 12:44:16;;;;;;;12.43;2.33;;;13.90;58.00;;;;;;5050468;28;20395;-46
2023/05/17 12:46:49;;;;;;;13.95;3.53;;;13.80;57.10;;;;;;5038134;28;20573;-47
2023/05/17 12:49:17;;;;;;;13.48;3.13;;;13.50;56.80;;;;;;5053446;28;20037;-46
2023/05/17 12:51:46;;;;;;;10.55;2.45;;;13.30;59.50;;;;;;5045779;28;20024;-45
2023/05/17 12:54:32;;;;;;;10.40;3.05;;;12.50;62.10;;;;;;5032880;28;20025;-47
2023/05/17 12:57:10;;;;;;;9.63;2.20;;;12.00;64.20;;;;;;5048208;28;20454;-48
2023/05/17 12:59:46;;;;;;;8.65;2.17;;;11.80;63.50;;;;;;5036514;28;20120;-46
2023/05/17 13:02:14;;;;;;;7.70;2.38;;;11.60;64.70;;;;;;5034966;28;20037;-47
2023/05/17 13:04:42;;;;;;;9.27;2.08;;;11.60;64.30;;;;;;5019892;28;20033;-46